createdAt,value
2022-12-11T00:00:53.215Z,99096.69
2022-12-11T00:05:54.914Z,99090.56
2022-12-11T00:10:58.123Z,99098.25
2022-12-11T00:15:59.991Z,99090.22
2022-12-11T00:21:05.947Z,99091.53
2022-12-11T00:26:14.417Z,99097.88
2022-12-11T00:31:19.061Z,99091.41
2022-12-11T00:36:23.806Z,99090.34
2022-12-11T00:41:25.511Z,99097.75
2022-12-11T00:46:27.219Z,99089.84
2022-12-11T00:51:29.411Z,99088.06
2022-12-11T00:56:31.068Z,99092.75
2022-12-11T01:01:32.861Z,99083.97
2022-12-11T01:06:34.725Z,99094.78
2022-12-11T01:11:36.468Z,99087.56
2022-12-11T01:16:38.295Z,99097.41
2022-12-11T01:21:41.205Z,99092.25
2022-12-11T01:26:42.877Z,99103.16
2022-12-11T01:31:44.583Z,99107.25
2022-12-11T01:36:46.266Z,99108.06
2022-12-11T01:41:47.929Z,99112.88
2022-12-11T01:46:49.612Z,99112.41
2022-12-11T01:51:56.925Z,99107.69
2022-12-11T01:57:03.017Z,99109.06
2022-12-11T02:02:09.411Z,99113.81
2022-12-11T02:07:11.293Z,99104.69
2022-12-11T02:12:28.219Z,99108.69
2022-12-11T02:17:38.626Z,99106.03
2022-12-11T02:22:58.711Z,99098.59
2022-12-11T02:28:32.325Z,99091.66
2022-12-11T02:33:43.981Z,99094.66
2022-12-11T02:38:50.756Z,99091.50
2022-12-11T02:43:55.312Z,99081.69
2022-12-11T02:48:58.067Z,99085.13
2022-12-11T02:54:00.216Z,99086.28
2022-12-11T02:59:08.667Z,99087.88
2022-12-11T03:04:10.363Z,99093.97
2022-12-11T03:09:12.372Z,99102.00
2022-12-11T03:14:14.461Z,99103.38
2022-12-11T03:19:32.001Z,99100.00
2022-12-11T03:24:38.057Z,99099.16
2022-12-11T03:29:48.814Z,99095.09
2022-12-11T03:35:23.004Z,99097.63
2022-12-11T03:40:26.024Z,99107.00
2022-12-11T03:45:29.551Z,99102.53
2022-12-11T03:50:34.599Z,99100.84
2022-12-11T03:55:39.544Z,99110.94
2022-12-11T04:00:41.292Z,99105.97
2022-12-11T04:05:46.222Z,99109.69
2022-12-11T04:10:48.258Z,99109.69
2022-12-11T04:15:49.963Z,99102.09
2022-12-11T04:21:14.938Z,99111.69
2022-12-11T04:26:19.997Z,99107.84
2022-12-11T04:31:22.696Z,99115.97
2022-12-11T04:36:24.742Z,99106.38
2022-12-11T04:41:26.407Z,99097.63
2022-12-11T04:46:28.127Z,99100.13
2022-12-11T04:51:29.984Z,99100.69
2022-12-11T04:56:31.643Z,99094.31
2022-12-11T05:01:33.332Z,99090.25
2022-12-11T05:06:35.003Z,99089.78
2022-12-11T05:11:36.738Z,99093.16
2022-12-11T05:16:38.586Z,99079.63
2022-12-11T05:21:40.339Z,99080.72
2022-12-11T05:26:42.133Z,99070.06
2022-12-11T05:31:43.911Z,99074.25
2022-12-11T05:36:45.591Z,99082.00
2022-12-11T05:41:47.250Z,99065.81
2022-12-11T05:46:49.787Z,99069.72
2022-12-11T05:51:51.815Z,99063.00
2022-12-11T05:56:53.504Z,99069.59
2022-12-11T06:01:55.330Z,99074.88
2022-12-11T06:06:57.039Z,99075.03
2022-12-11T06:11:58.718Z,99083.47
2022-12-11T06:17:01.586Z,99083.06
2022-12-11T06:22:03.269Z,99072.00
2022-12-11T06:27:05.003Z,99082.47
2022-12-11T06:32:07.017Z,99078.38
2022-12-11T06:37:08.695Z,99085.09
2022-12-11T06:42:10.354Z,99093.13
2022-12-11T06:47:12.042Z,99089.81
2022-12-11T06:52:18.196Z,99086.78
2022-12-11T06:57:20.403Z,99098.34
2022-12-11T07:02:22.603Z,99092.88
2022-12-11T07:07:24.379Z,99098.78
2022-12-11T07:12:26.093Z,99102.75
2022-12-11T07:17:29.610Z,99107.81
2022-12-11T07:22:31.547Z,99108.91
2022-12-11T07:27:33.305Z,99110.91
2022-12-11T07:32:34.998Z,99112.34
2022-12-11T07:37:36.711Z,99120.03
2022-12-11T07:42:41.478Z,99116.38
2022-12-11T07:47:47.546Z,99133.00
2022-12-11T07:52:49.219Z,99128.47
2022-12-11T07:57:50.877Z,99126.47
2022-12-11T08:02:52.633Z,99129.06
2022-12-11T08:07:54.443Z,99135.28
2022-12-11T08:12:56.142Z,99128.63
2022-12-11T08:17:57.844Z,99134.06
2022-12-11T08:22:59.552Z,99130.31
2022-12-11T08:28:01.287Z,99129.34
2022-12-11T08:33:03.001Z,99126.00
2022-12-11T08:38:04.730Z,99109.34
2022-12-11T08:43:06.395Z,99116.19
2022-12-11T08:48:08.091Z,99105.72
2022-12-11T08:53:09.747Z,99113.63
2022-12-11T08:58:11.417Z,99114.63
2022-12-11T09:03:13.192Z,99114.03
2022-12-11T09:08:15.121Z,99119.88
2022-12-11T09:13:16.827Z,99134.28
2022-12-11T09:18:18.497Z,99127.91
2022-12-11T09:23:20.164Z,99129.22
2022-12-11T09:28:22.388Z,99119.50
2022-12-11T09:33:24.163Z,99118.09
2022-12-11T09:38:26.639Z,99117.69
2022-12-11T09:43:52.326Z,99111.25
2022-12-11T09:48:54.197Z,99103.88
2022-12-11T09:53:59.871Z,99115.44
2022-12-11T09:59:23.944Z,99108.72
2022-12-11T10:04:47.299Z,99107.31
2022-12-11T10:09:56.975Z,99103.88
2022-12-11T10:15:08.787Z,99094.78
2022-12-11T10:20:17.218Z,99092.09
2022-12-11T10:25:27.330Z,99088.28
2022-12-11T10:30:37.161Z,99083.28
2022-12-11T10:35:58.205Z,99082.63
2022-12-11T10:41:10.331Z,99076.22
2022-12-11T10:46:32.951Z,99078.59
2022-12-11T10:51:36.935Z,99074.34
2022-12-11T10:56:38.748Z,99068.09
2022-12-11T11:01:46.417Z,99062.00
2022-12-11T11:06:49.846Z,99050.69
2022-12-11T11:11:51.602Z,99055.22
2022-12-11T11:16:57.234Z,99046.28
2022-12-11T11:22:05.854Z,99045.41
2022-12-11T11:27:28.176Z,99036.09
2022-12-11T11:32:38.594Z,99031.91
2022-12-11T11:37:44.524Z,99033.78
2022-12-11T11:42:58.485Z,99025.38
2022-12-11T11:48:11.522Z,99027.69
2022-12-11T11:53:37.433Z,99022.03
2022-12-11T11:58:47.008Z,99002.94
2022-12-11T12:03:50.392Z,99011.38
2022-12-11T12:09:03.248Z,99002.81
2022-12-11T12:20:00.841Z,99007.41
2022-12-11T12:25:35.665Z,99014.72
2022-12-11T12:31:14.818Z,99013.53
2022-12-11T12:36:39.203Z,99003.34
2022-12-11T12:41:49.920Z,99002.75
2022-12-11T12:47:00.170Z,99002.59
2022-12-11T12:52:03.617Z,98994.91
2022-12-11T12:57:05.831Z,98992.47
2022-12-11T13:02:16.485Z,98986.47
2022-12-11T13:07:27.341Z,98975.25
2022-12-11T13:12:40.678Z,98981.91
2022-12-11T13:17:42.370Z,98977.13
2022-12-11T13:23:10.658Z,98963.53
2022-12-11T13:28:47.311Z,98969.69
2022-12-11T13:33:52.129Z,98972.66
2022-12-11T13:38:59.405Z,98976.38
2022-12-11T13:44:01.816Z,98974.66
2022-12-11T13:49:07.203Z,98985.88
2022-12-11T13:54:17.281Z,98992.34
2022-12-11T13:59:53.405Z,98991.06
2022-12-11T14:04:59.320Z,98994.34
2022-12-11T14:10:06.301Z,98980.13
2022-12-11T14:15:14.803Z,98980.50
2022-12-11T14:20:20.630Z,98986.00
2022-12-11T14:25:27.486Z,98981.72
2022-12-11T14:30:33.116Z,98973.41
2022-12-11T14:35:41.681Z,98994.19
2022-12-11T14:40:47.204Z,98991.59
2022-12-11T14:45:54.293Z,98995.69
2022-12-11T14:51:01.233Z,98998.81
2022-12-11T14:56:09.121Z,98994.47
2022-12-11T15:01:23.051Z,98995.41
2022-12-11T15:06:28.527Z,99007.25
2022-12-11T15:11:32.017Z,98999.44
2022-12-11T15:16:37.616Z,99005.97
2022-12-11T15:21:39.360Z,99004.03
2022-12-11T15:26:50.006Z,99003.50
2022-12-11T15:32:01.995Z,99004.03
2022-12-11T15:37:03.744Z,99003.09
2022-12-11T15:42:06.591Z,99003.44
2022-12-11T15:47:15.794Z,98995.84
2022-12-11T15:52:17.524Z,99004.53
2022-12-11T15:57:22.984Z,99012.94
2022-12-11T16:02:26.780Z,99006.41
2022-12-11T16:07:30.846Z,99002.94
2022-12-11T16:12:32.622Z,99006.28
2022-12-11T16:17:34.405Z,99020.22
2022-12-11T16:22:36.286Z,99019.56
2022-12-11T16:27:37.990Z,99011.38
2022-12-11T16:32:39.716Z,99015.69
2022-12-11T16:37:41.402Z,99015.28
2022-12-11T16:42:43.288Z,99017.22
2022-12-11T16:47:45.100Z,99017.25
2022-12-11T16:52:47.423Z,99008.53
2022-12-11T16:57:49.286Z,99011.38
2022-12-11T17:02:51.168Z,99013.06
2022-12-11T17:07:52.902Z,99012.22
2022-12-11T17:12:54.952Z,99016.44
2022-12-11T17:17:56.608Z,99019.25
2022-12-11T17:22:58.257Z,99019.69
2022-12-11T17:28:00.085Z,99013.75
2022-12-11T17:33:02.948Z,99018.94
2022-12-11T17:38:05.017Z,99020.50
2022-12-11T17:43:09.314Z,99014.72
2022-12-11T17:48:12.041Z,99016.63
2022-12-11T17:53:15.516Z,99017.50
2022-12-11T17:58:19.840Z,99020.41
2022-12-11T18:03:22.013Z,99024.19
2022-12-11T18:08:27.219Z,99021.22
2022-12-11T18:13:29.163Z,99009.19
2022-12-11T18:18:31.195Z,99014.13
2022-12-11T18:23:32.926Z,99014.00
2022-12-11T18:28:34.627Z,99012.94
2022-12-11T18:33:38.519Z,99015.63
2022-12-11T18:38:40.620Z,99019.28
2022-12-11T18:43:42.427Z,99026.63
2022-12-11T18:48:45.325Z,99024.81
2022-12-11T18:53:47.029Z,99022.44
2022-12-11T18:58:49.095Z,99020.63
2022-12-11T19:04:00.466Z,99012.03
2022-12-11T19:09:07.048Z,99008.75
2022-12-11T19:14:10.089Z,99007.72
2022-12-11T19:19:18.569Z,99017.06
2022-12-11T19:24:22.319Z,98999.50
2022-12-11T19:29:27.923Z,99005.94
2022-12-11T19:34:29.747Z,99004.31
2022-12-11T19:39:31.477Z,99012.34
2022-12-11T19:44:33.170Z,99011.91
2022-12-11T19:49:34.858Z,99009.91
2022-12-11T19:54:36.873Z,99011.38
2022-12-11T19:59:40.404Z,99014.34
2022-12-11T20:04:43.047Z,99013.91
2022-12-11T20:09:45.163Z,99003.16
2022-12-11T20:14:47.744Z,99008.84
2022-12-11T20:19:49.420Z,99004.03
2022-12-11T20:24:51.289Z,99016.28
2022-12-11T20:29:52.996Z,98999.88
2022-12-11T20:34:56.461Z,98998.38
2022-12-11T20:39:59.510Z,99007.88
2022-12-11T20:45:01.213Z,99007.88
2022-12-11T20:50:03.660Z,99010.56
2022-12-11T20:55:06.333Z,99013.09
2022-12-11T21:00:08.815Z,99006.97
2022-12-11T21:05:11.493Z,99009.31
2022-12-11T21:10:13.654Z,99001.63
2022-12-11T21:15:15.474Z,98995.50
2022-12-11T21:20:17.115Z,98998.34
2022-12-11T21:25:19.220Z,98993.50
2022-12-11T21:30:20.896Z,99004.66
2022-12-11T21:35:22.560Z,98994.34
2022-12-11T21:40:24.286Z,98987.91
2022-12-11T21:50:47.626Z,98985.84
2022-12-11T21:55:49.292Z,98981.19
2022-12-11T22:00:50.991Z,98979.75
2022-12-11T22:05:52.716Z,98976.38
2022-12-11T22:10:56.641Z,98975.97
2022-12-11T22:15:58.330Z,98965.84
2022-12-11T22:21:00.076Z,98981.84
2022-12-11T22:26:01.757Z,98977.44
2022-12-11T22:31:03.474Z,98973.84
2022-12-11T22:36:05.480Z,98972.19
2022-12-11T22:41:21.991Z,98975.13
2022-12-11T22:46:27.388Z,98971.75
2022-12-11T22:51:29.127Z,98977.84
2022-12-11T22:56:31.139Z,98977.97
2022-12-11T23:01:33.032Z,98973.56
2022-12-11T23:06:35.778Z,98986.16
2022-12-11T23:11:40.169Z,98979.53
2022-12-11T23:16:42.583Z,98988.97
2022-12-11T23:21:45.012Z,98993.50
2022-12-11T23:26:48.102Z,98990.25
2022-12-11T23:31:49.764Z,98982.16
2022-12-11T23:36:51.494Z,98991.31
2022-12-11T23:41:53.142Z,98993.81
2022-12-11T23:46:54.811Z,98991.19
2022-12-11T23:51:56.769Z,98989.66
2022-12-11T23:56:58.440Z,98998.38
